Time;durP1;ratioP1;P1;durP2;ratioP2;P2;SDS_P1;SDS_P2;PMS_P1;PMS_P2;Temp;Humidity;BMP_temperature;BMP_pressure;BME280_temperature;BME280_humidity;BME280_pressure;Samples;Min_cycle;Max_cycle;Signal;HPM_P1;HPM_P2
2023/09/27 00:00:14;;;;;;;2.85;2.65;;;17.10;99.90;;;;;;5022209;28;20711;-72
2023/09/27 00:02:42;;;;;;;2.85;2.65;;;17.10;99.90;;;;;;5036697;28;22278;-71
2023/09/27 00:05:12;;;;;;;4.32;2.90;;;17.10;99.90;;;;;;5035750;28;20223;-72
2023/09/27 00:07:40;;;;;;;3.30;3.00;;;17.00;99.90;;;;;;5038523;28;20203;-72
2023/09/27 00:10:09;;;;;;;3.35;3.05;;;17.00;99.90;;;;;;5036154;28;20218;-71
2023/09/27 00:12:37;;;;;;;3.40;3.08;;;17.00;99.90;;;;;;5038065;28;20213;-71
2023/09/27 00:15:05;;;;;;;3.38;3.10;;;16.90;99.90;;;;;;5036860;28;20231;-72
2023/09/27 00:17:33;;;;;;;3.10;2.90;;;16.90;99.90;;;;;;5041685;28;20207;-72
2023/09/27 00:20:00;;;;;;;3.00;2.80;;;16.90;99.90;;;;;;5035946;28;20227;-72
2023/09/27 00:22:31;;;;;;;3.55;2.58;;;16.90;99.90;;;;;;5037741;28;20227;-72
2023/09/27 00:24:58;;;;;;;3.08;2.88;;;16.90;99.90;;;;;;5039815;28;20199;-71
2023/09/27 00:27:26;;;;;;;3.25;3.05;;;16.90;99.90;;;;;;5036784;28;20261;-72
2023/09/27 00:29:53;;;;;;;3.28;3.03;;;16.80;99.90;;;;;;5043768;28;20225;-71
2023/09/27 00:32:20;;;;;;;3.42;3.13;;;16.80;99.90;;;;;;5038601;28;20203;-72
2023/09/27 00:34:47;;;;;;;4.15;3.30;;;16.70;99.90;;;;;;5040058;28;20918;-71
2023/09/27 00:37:14;;;;;;;3.55;3.13;;;16.70;99.90;;;;;;5038999;28;20818;-71
2023/09/27 00:39:43;;;;;;;3.15;2.85;;;16.70;99.90;;;;;;5040427;28;20207;-71
2023/09/27 00:42:10;;;;;;;3.33;3.03;;;16.60;99.90;;;;;;5037225;28;20643;-72
2023/09/27 00:44:37;;;;;;;3.50;3.30;;;16.60;99.90;;;;;;5036952;28;20197;-71
2023/09/27 00:47:07;;;;;;;2.80;2.50;;;16.60;99.90;;;;;;5041839;28;20276;-71
2023/09/27 00:49:35;;;;;;;3.58;3.10;;;16.70;99.90;;;;;;5039951;28;20647;-71
2023/09/27 00:52:03;;;;;;;3.35;3.15;;;16.70;99.90;;;;;;5034360;28;20234;-72
2023/09/27 00:54:33;;;;;;;3.15;2.88;;;16.70;99.90;;;;;;5037529;28;20277;-71
2023/09/27 00:57:03;;;;;;;3.42;3.13;;;16.60;99.90;;;;;;5017997;28;20219;-71
2023/09/27 00:59:31;;;;;;;3.00;2.80;;;16.60;99.90;;;;;;5037515;28;20269;-72
2023/09/27 01:01:58;;;;;;;3.80;3.33;;;16.60;99.90;;;;;;5037073;28;20656;-72
2023/09/27 01:04:25;;;;;;;3.63;3.33;;;16.50;99.90;;;;;;5036620;28;20289;-71
2023/09/27 01:06:52;;;;;;;3.38;3.08;;;16.50;99.90;;;;;;5017488;28;20224;-71
2023/09/27 01:09:19;;;;;;;2.90;2.70;;;16.50;99.90;;;;;;5037145;28;20884;-71
2023/09/27 01:11:47;;;;;;;3.80;3.47;;;16.50;99.90;;;;;;5040151;28;20284;-71
2023/09/27 01:14:16;;;;;;;3.33;2.97;;;16.50;99.90;;;;;;5039396;28;20614;-72
2023/09/27 01:16:43;;;;;;;4.80;3.03;;;16.50;99.90;;;;;;5041163;28;20223;-72
2023/09/27 01:19:10;;;;;;;3.50;3.20;;;16.40;99.90;;;;;;5037686;28;20206;-71
2023/09/27 01:21:37;;;;;;;3.13;2.92;;;16.30;99.90;;;;;;5036104;28;20206;-71
2023/09/27 01:24:07;;;;;;;3.13;2.92;;;16.30;99.90;;;;;;5035857;28;20277;-71
2023/09/27 01:26:37;;;;;;;4.53;2.97;;;16.30;99.90;;;;;;5021227;28;20726;-72
2023/09/27 01:29:05;;;;;;;3.45;3.17;;;16.30;99.90;;;;;;5016931;28;20215;-72
2023/09/27 01:31:33;;;;;;;3.40;3.10;;;16.30;99.90;;;;;;5032469;28;20342;-72
2023/09/27 01:34:00;;;;;;;3.35;2.78;;;16.20;99.90;;;;;;5019255;28;20203;-72
2023/09/27 01:36:27;;;;;;;3.38;3.13;;;16.20;99.90;;;;;;5036870;28;20226;-73
2023/09/27 01:38:54;;;;;;;3.00;2.80;;;16.20;99.90;;;;;;5038785;28;20650;-72
2023/09/27 01:41:23;;;;;;;3.45;3.17;;;16.20;99.90;;;;;;5040516;28;20288;-71
2023/09/27 01:43:50;;;;;;;3.03;2.83;;;16.20;99.90;;;;;;5022201;28;20289;-71
2023/09/27 01:46:17;;;;;;;3.10;2.88;;;16.20;99.90;;;;;;5035992;28;20719;-72
2023/09/27 01:48:44;;;;;;;3.35;3.05;;;16.20;99.90;;;;;;5035098;28;20227;-71
2023/09/27 01:51:13;;;;;;;4.68;3.65;;;16.20;99.90;;;;;;5038608;28;20199;-71
2023/09/27 01:53:40;;;;;;;3.28;3.08;;;16.20;99.90;;;;;;5038649;28;20210;-71
2023/09/27 01:56:07;;;;;;;4.22;3.35;;;16.20;99.90;;;;;;5036203;28;20759;-71
2023/09/27 01:58:36;;;;;;;3.15;2.95;;;16.20;99.90;;;;;;5038475;28;20199;-72
2023/09/27 02:01:03;;;;;;;3.30;3.10;;;16.10;99.90;;;;;;5021286;28;20213;-71
2023/09/27 02:03:30;;;;;;;3.33;2.95;;;16.10;99.90;;;;;;5036315;28;20284;-71
2023/09/27 02:05:58;;;;;;;3.65;3.35;;;16.10;99.90;;;;;;5031636;28;20665;-72
2023/09/27 02:08:25;;;;;;;3.67;3.38;;;16.10;99.90;;;;;;5020401;28;20326;-71
2023/09/27 02:10:53;;;;;;;3.40;3.20;;;16.00;99.90;;;;;;5036697;28;20206;-72
2023/09/27 02:13:20;;;;;;;3.47;3.17;;;16.00;99.90;;;;;;5033980;28;20288;-72
2023/09/27 02:15:48;;;;;;;3.40;3.10;;;16.00;99.90;;;;;;5036814;28;20222;-71
2023/09/27 02:18:15;;;;;;;3.70;3.40;;;16.00;99.90;;;;;;5032957;28;20211;-71
2023/09/27 02:20:42;;;;;;;3.60;3.35;;;16.00;99.90;;;;;;5038043;28;20232;-72
2023/09/27 02:23:09;;;;;;;3.63;3.33;;;16.00;99.90;;;;;;5041369;28;20207;-71
2023/09/27 02:25:36;;;;;;;3.40;3.20;;;16.00;99.90;;;;;;5021195;28;20305;-72
2023/09/27 02:28:04;;;;;;;3.83;3.40;;;16.00;99.90;;;;;;5017603;28;20290;-72
2023/09/27 02:30:32;;;;;;;3.50;3.20;;;15.90;99.90;;;;;;5035280;28;20210;-72
2023/09/27 02:33:00;;;;;;;3.08;2.88;;;15.90;99.90;;;;;;5019918;28;20199;-72
2023/09/27 02:35:27;;;;;;;3.88;3.58;;;15.90;99.90;;;;;;5020500;28;20305;-73
2023/09/27 02:37:54;;;;;;;3.17;2.97;;;15.90;99.90;;;;;;5036183;28;20226;-72
2023/09/27 02:40:21;;;;;;;3.72;2.70;;;15.90;99.90;;;;;;5034533;28;20254;-71
2023/09/27 02:42:48;;;;;;;3.35;2.85;;;15.90;99.90;;;;;;5037259;28;20196;-72
2023/09/27 02:45:16;;;;;;;4.60;3.17;;;15.80;99.90;;;;;;5017656;28;20354;-72
2023/09/27 02:47:45;;;;;;;3.10;2.90;;;15.80;99.90;;;;;;5024141;28;20252;-71
2023/09/27 02:50:14;;;;;;;3.53;3.22;;;15.80;99.90;;;;;;5039704;28;20211;-72
2023/09/27 02:52:43;;;;;;;3.78;3.47;;;15.80;99.90;;;;;;5041835;28;20202;-72
2023/09/27 02:55:11;;;;;;;3.78;3.47;;;15.70;99.90;;;;;;5037829;28;20282;-72
2023/09/27 02:57:38;;;;;;;3.75;3.45;;;15.70;99.90;;;;;;5044679;28;20249;-72
2023/09/27 03:00:08;;;;;;;3.90;3.05;;;15.60;99.90;;;;;;5043928;28;20222;-72
2023/09/27 03:02:37;;;;;;;3.97;3.20;;;15.60;99.90;;;;;;5039968;28;20781;-71
2023/09/27 03:05:07;;;;;;;3.60;3.30;;;15.60;99.90;;;;;;5042905;28;20293;-71
2023/09/27 03:07:36;;;;;;;3.70;3.40;;;15.60;99.90;;;;;;5041801;28;20210;-70
2023/09/27 03:10:04;;;;;;;3.70;3.40;;;15.60;99.90;;;;;;5042738;28;20317;-71
2023/09/27 03:12:31;;;;;;;3.70;3.42;;;15.60;99.90;;;;;;5041254;28;20260;-71
2023/09/27 03:15:01;;;;;;;3.35;3.15;;;15.60;99.90;;;;;;5038660;28;20207;-70
2023/09/27 03:17:28;;;;;;;3.50;3.30;;;15.50;99.90;;;;;;5039692;28;20213;-71
2023/09/27 03:19:55;;;;;;;3.60;3.30;;;15.50;99.90;;;;;;5036152;28;20602;-71
2023/09/27 03:22:22;;;;;;;4.63;3.42;;;15.50;99.90;;;;;;5037661;28;20207;-70
2023/09/27 03:24:51;;;;;;;3.65;3.35;;;15.50;99.90;;;;;;5037282;28;20253;-71
2023/09/27 03:27:18;;;;;;;3.30;3.00;;;15.50;99.90;;;;;;5022023;28;20306;-71
2023/09/27 03:29:46;;;;;;;4.13;2.97;;;15.40;99.90;;;;;;5042661;28;20210;-71
2023/09/27 03:32:13;;;;;;;3.60;3.30;;;15.50;99.90;;;;;;5037094;28;20657;-72
2023/09/27 03:34:40;;;;;;;3.60;3.30;;;15.40;99.90;;;;;;5041298;28;20195;-71
2023/09/27 03:37:08;;;;;;;4.18;3.85;;;15.40;99.90;;;;;;5037440;28;20237;-71
2023/09/27 03:39:36;;;;;;;3.85;3.55;;;15.40;99.90;;;;;;5035951;28;20669;-71
2023/09/27 03:42:05;;;;;;;3.40;3.10;;;15.30;99.90;;;;;;5020749;28;20752;-71
2023/09/27 03:44:33;;;;;;;3.75;3.45;;;15.30;99.90;;;;;;5040819;28;20199;-72
2023/09/27 03:47:00;;;;;;;3.33;3.03;;;15.30;99.90;;;;;;5041789;28;20254;-71
2023/09/27 03:49:27;;;;;;;4.38;4.05;;;15.30;99.90;;;;;;5038152;28;20765;-71
2023/09/27 03:51:54;;;;;;;3.25;2.95;;;15.30;99.90;;;;;;5042716;28;20605;-71
2023/09/27 03:54:22;;;;;;;3.58;3.28;;;15.30;99.90;;;;;;5035879;28;20652;-71
2023/09/27 03:56:49;;;;;;;3.80;3.50;;;15.30;99.90;;;;;;5040857;28;20302;-71
2023/09/27 03:59:18;;;;;;;3.70;3.40;;;15.30;99.90;;;;;;5033894;28;20204;-71
2023/09/27 04:01:46;;;;;;;3.30;3.08;;;15.30;99.90;;;;;;5039082;28;20211;-71
2023/09/27 04:04:13;;;;;;;4.13;3.83;;;15.30;99.90;;;;;;5038658;28;20211;-71
2023/09/27 04:06:40;;;;;;;3.67;3.38;;;15.30;99.90;;;;;;5020495;28;20943;-72
2023/09/27 04:09:08;;;;;;;4.20;3.80;;;15.30;99.90;;;;;;5036050;28;20285;-71
2023/09/27 04:11:35;;;;;;;4.13;3.72;;;15.30;99.90;;;;;;5037020;28;20302;-71
2023/09/27 04:14:03;;;;;;;3.75;3.45;;;15.30;99.90;;;;;;5037438;28;20293;-73
2023/09/27 04:16:32;;;;;;;4.15;3.22;;;15.30;99.90;;;;;;5039947;28;20260;-71
2023/09/27 04:18:59;;;;;;;3.72;3.42;;;15.30;99.90;;;;;;5036174;28;20318;-71
2023/09/27 04:21:26;;;;;;;4.03;3.65;;;15.20;99.90;;;;;;5035585;28;20230;-70
2023/09/27 04:23:57;;;;;;;3.78;3.40;;;15.20;99.90;;;;;;5037337;28;20230;-71
2023/09/27 04:26:25;;;;;;;3.53;3.17;;;15.20;99.90;;;;;;5038553;28;20700;-71
2023/09/27 04:28:52;;;;;;;3.83;3.53;;;15.20;99.90;;;;;;5035384;28;20199;-71
2023/09/27 04:31:19;;;;;;;3.63;3.33;;;15.20;99.90;;;;;;5037943;28;21093;-72
2023/09/27 04:33:48;;;;;;;6.90;4.25;;;15.20;99.90;;;;;;5039966;28;20849;-71
2023/09/27 04:36:17;;;;;;;3.80;3.50;;;15.10;99.90;;;;;;5037198;28;20219;-71
2023/09/27 04:38:45;;;;;;;3.63;3.33;;;15.20;99.90;;;;;;5040159;28;20295;-72
2023/09/27 04:41:13;;;;;;;3.70;3.40;;;15.10;99.90;;;;;;5039998;28;20649;-72
2023/09/27 04:43:41;;;;;;;3.58;3.28;;;15.10;99.90;;;;;;5039329;28;20204;-71
2023/09/27 04:46:09;;;;;;;3.60;3.30;;;15.10;99.90;;;;;;5036053;28;20227;-71
2023/09/27 04:48:35;;;;;;;3.60;3.30;;;15.10;99.90;;;;;;5010826;28;21117;-71
2023/09/27 04:51:04;;;;;;;4.38;3.80;;;15.10;99.90;;;;;;5037422;28;20837;-72
2023/09/27 04:53:37;;;;;;;3.83;3.53;;;15.10;99.90;;;;;;5038106;28;20626;-71
2023/09/27 04:56:05;;;;;;;3.65;3.35;;;15.00;99.90;;;;;;5039296;28;20226;-71
2023/09/27 04:58:33;;;;;;;3.67;3.38;;;15.10;99.90;;;;;;5039645;28;20196;-72
2023/09/27 05:01:00;;;;;;;3.85;3.55;;;15.00;99.90;;;;;;5042984;28;20246;-71
2023/09/27 05:03:31;;;;;;;3.42;3.13;;;15.00;99.90;;;;;;5024732;28;20209;-71
2023/09/27 05:05:58;;;;;;;3.75;3.45;;;15.00;99.90;;;;;;5026624;28;20222;-72
2023/09/27 05:08:26;;;;;;;3.80;3.50;;;14.90;99.90;;;;;;5046505;28;20719;-71
2023/09/27 05:10:55;;;;;;;4.05;3.75;;;14.90;99.90;;;;;;5039265;28;20310;-71
2023/09/27 05:13:22;;;;;;;4.32;3.65;;;15.00;99.90;;;;;;5037290;28;20214;-73
2023/09/27 05:15:49;;;;;;;3.90;3.60;;;14.90;99.90;;;;;;5037728;28;20321;-71
2023/09/27 05:18:16;;;;;;;3.53;3.20;;;14.90;99.90;;;;;;5020117;28;20198;-71
2023/09/27 05:20:44;;;;;;;5.40;4.05;;;14.90;99.90;;;;;;5017527;28;22207;-71
2023/09/27 05:23:11;;;;;;;3.85;3.55;;;14.90;99.90;;;;;;5038865;28;20199;-71
2023/09/27 05:25:40;;;;;;;4.03;3.72;;;14.90;99.90;;;;;;5037671;28;20234;-71
2023/09/27 05:28:07;;;;;;;3.95;3.53;;;14.90;99.90;;;;;;5038363;28;20256;-71
2023/09/27 05:30:34;;;;;;;3.75;3.45;;;14.90;99.90;;;;;;5038887;28;20783;-71
2023/09/27 05:33:02;;;;;;;3.97;3.58;;;15.00;99.90;;;;;;5040834;28;20723;-71
2023/09/27 05:35:29;;;;;;;4.30;3.90;;;15.00;99.90;;;;;;5037184;28;20226;-71
2023/09/27 05:37:57;;;;;;;4.18;3.78;;;15.00;99.90;;;;;;5037585;28;20824;-71
2023/09/27 05:40:24;;;;;;;3.70;3.40;;;15.00;99.90;;;;;;5038588;28;20613;-72
2023/09/27 05:42:52;;;;;;;4.05;3.58;;;15.00;99.90;;;;;;5034985;28;20230;-71
2023/09/27 05:45:19;;;;;;;3.50;3.20;;;15.10;99.90;;;;;;5037438;28;20219;-72
2023/09/27 05:47:47;;;;;;;3.78;3.47;;;15.10;99.90;;;;;;5016057;28;20695;-72
2023/09/27 05:50:14;;;;;;;4.15;3.40;;;15.10;99.90;;;;;;5017518;28;20230;-73
2023/09/27 05:52:43;;;;;;;3.92;3.60;;;15.20;99.90;;;;;;5034076;28;20683;-72
2023/09/27 05:55:11;;;;;;;4.43;3.72;;;15.20;99.90;;;;;;5016426;28;20202;-71
2023/09/27 05:57:38;;;;;;;4.30;3.58;;;15.30;99.90;;;;;;5032485;28;20191;-71
2023/09/27 06:00:13;;;;;;;3.95;3.58;;;15.30;99.90;;;;;;5038131;28;20204;-70
2023/09/27 06:02:40;;;;;;;4.82;3.70;;;15.30;99.90;;;;;;5032169;28;20652;-71
2023/09/27 06:05:08;;;;;;;3.40;3.10;;;15.40;99.90;;;;;;5039688;28;20226;-71
2023/09/27 06:07:35;;;;;;;3.63;3.33;;;15.50;99.90;;;;;;5016850;28;20200;-71
2023/09/27 06:10:02;;;;;;;4.80;3.85;;;15.70;99.90;;;;;;5036784;28;20199;-71
2023/09/27 06:12:29;;;;;;;3.83;3.53;;;16.00;99.90;;;;;;5032254;28;20771;-71
2023/09/27 06:14:56;;;;;;;3.60;3.30;;;16.30;99.90;;;;;;5040554;28;20373;-71
2023/09/27 06:17:24;;;;;;;4.18;3.42;;;16.70;99.90;;;;;;5035206;28;20223;-72
2023/09/27 06:19:51;;;;;;;4.00;3.60;;;17.30;99.90;;;;;;5035169;28;20257;-71
2023/09/27 06:22:22;;;;;;;4.28;3.80;;;17.70;99.90;;;;;;5033406;28;20207;-71
2023/09/27 06:24:49;;;;;;;4.20;3.47;;;18.10;99.90;;;;;;5036421;28;20262;-71
2023/09/27 06:27:17;;;;;;;4.22;3.80;;;18.50;99.90;;;;;;5034438;28;20223;-71
2023/09/27 06:29:45;;;;;;;4.90;3.90;;;18.80;99.90;;;;;;5035339;28;20211;-71
2023/09/27 06:32:13;;;;;;;4.85;4.25;;;19.00;99.90;;;;;;5035345;28;20211;-72
2023/09/27 06:34:43;;;;;;;4.63;3.67;;;19.30;99.90;;;;;;5036125;28;20260;-72
2023/09/27 06:37:10;;;;;;;4.05;3.75;;;19.60;99.90;;;;;;5033180;28;20737;-72
2023/09/27 06:39:37;;;;;;;4.10;3.72;;;19.90;99.90;;;;;;5037488;28;20203;-72
2023/09/27 06:42:07;;;;;;;3.88;3.58;;;19.90;99.90;;;;;;5034918;28;20450;-72
2023/09/27 06:44:34;;;;;;;5.00;3.45;;;19.90;99.90;;;;;;5016609;28;20734;-73
2023/09/27 06:47:04;;;;;;;3.90;3.50;;;20.00;99.90;;;;;;5035483;28;20227;-73
2023/09/27 06:49:31;;;;;;;4.78;3.78;;;20.00;99.90;;;;;;5033044;28;21099;-74
2023/09/27 06:52:00;;;;;;;6.38;4.10;;;20.10;99.90;;;;;;5021922;28;20211;-71
2023/09/27 06:54:27;;;;;;;5.70;4.10;;;20.10;99.90;;;;;;5028860;28;20312;-72
2023/09/27 06:56:54;;;;;;;5.90;3.95;;;20.20;99.90;;;;;;5035168;28;20219;-73
2023/09/27 06:59:21;;;;;;;4.82;4.20;;;20.50;99.90;;;;;;5033554;28;20192;-71
2023/09/27 07:01:49;;;;;;;5.05;3.80;;;20.80;99.90;;;;;;5030880;28;20207;-72
2023/09/27 07:04:16;;;;;;;6.72;4.35;;;21.00;99.90;;;;;;5033334;28;20195;-73
2023/09/27 07:06:45;;;;;;;5.95;4.00;;;21.20;99.90;;;;;;5028339;28;20643;-72
2023/09/27 07:09:16;;;;;;;4.72;4.18;;;21.20;99.90;;;;;;5018312;28;20222;-73
2023/09/27 07:11:44;;;;;;;5.45;3.78;;;21.10;99.90;;;;;;5033985;28;20307;-72
2023/09/27 07:14:12;;;;;;;7.47;4.13;;;21.10;99.90;;;;;;5029273;28;20816;-72
2023/09/27 07:16:39;;;;;;;4.57;4.15;;;21.40;99.90;;;;;;5036331;28;20222;-72
2023/09/27 07:19:06;;;;;;;6.07;4.45;;;21.70;99.90;;;;;;5020627;28;20249;-71
2023/09/27 07:21:34;;;;;;;4.20;3.80;;;21.80;99.90;;;;;;5037316;28;20219;-71
2023/09/27 07:24:01;;;;;;;6.63;4.20;;;21.90;99.90;;;;;;5019465;28;20212;-72
2023/09/27 07:26:32;;;;;;;4.40;4.00;;;22.00;99.90;;;;;;5038815;28;20218;-72
2023/09/27 07:29:00;;;;;;;4.22;3.83;;;22.10;99.90;;;;;;5032645;28;20218;-72
2023/09/27 07:31:27;;;;;;;5.88;4.38;;;22.20;99.90;;;;;;5037460;28;20230;-71
2023/09/27 07:33:55;;;;;;;4.50;4.10;;;22.40;99.90;;;;;;5036427;28;20200;-71
2023/09/27 07:36:24;;;;;;;6.63;4.28;;;22.40;99.90;;;;;;5020179;28;20647;-73
2023/09/27 07:38:51;;;;;;;4.45;4.05;;;22.20;99.90;;;;;;5043934;28;20203;-72
2023/09/27 07:41:19;;;;;;;5.60;4.32;;;22.00;99.90;;;;;;5036509;28;20225;-71
2023/09/27 07:43:48;;;;;;;4.65;3.88;;;22.10;99.90;;;;;;5039183;28;20251;-72
2023/09/27 07:46:17;;;;;;;4.53;4.00;;;22.40;99.90;;;;;;5038136;28;20250;-71
2023/09/27 07:48:45;;;;;;;4.40;3.63;;;22.70;99.90;;;;;;5032432;28;20199;-72
2023/09/27 07:51:12;;;;;;;4.10;3.70;;;22.90;99.90;;;;;;5036160;28;20247;-71
2023/09/27 07:53:40;;;;;;;5.32;3.88;;;23.00;99.90;;;;;;5037264;28;20210;-71
2023/09/27 07:56:09;;;;;;;4.28;3.90;;;23.10;99.90;;;;;;5034345;28;20242;-72
2023/09/27 07:58:36;;;;;;;5.65;3.92;;;23.30;99.90;;;;;;5035932;28;20261;-71
2023/09/27 08:01:05;;;;;;;4.60;3.75;;;23.50;99.90;;;;;;5037350;28;20203;-72
2023/09/27 08:03:32;;;;;;;5.60;4.20;;;23.60;99.90;;;;;;5039428;28;20202;-71
2023/09/27 08:05:59;;;;;;;10.63;4.07;;;23.50;99.90;;;;;;5036285;28;20223;-71
2023/09/27 08:08:27;;;;;;;5.00;3.95;;;23.40;99.90;;;;;;5040640;28;20291;-72
2023/09/27 08:10:54;;;;;;;4.85;4.15;;;23.40;99.90;;;;;;5035401;28;20241;-72
2023/09/27 08:13:21;;;;;;;4.97;4.18;;;23.40;99.90;;;;;;5039101;28;20199;-72
2023/09/27 08:15:49;;;;;;;5.30;3.95;;;23.50;99.90;;;;;;5037087;28;20252;-72
2023/09/27 08:18:19;;;;;;;4.60;3.80;;;23.50;99.90;;;;;;5035267;28;20230;-71
2023/09/27 08:20:46;;;;;;;5.38;4.43;;;23.50;99.90;;;;;;5035454;28;20277;-72
2023/09/27 08:23:13;;;;;;;5.60;4.57;;;23.50;99.90;;;;;;5038459;28;20684;-71
2023/09/27 08:25:41;;;;;;;7.53;3.95;;;23.50;99.90;;;;;;5037729;28;20799;-71
2023/09/27 08:28:09;;;;;;;6.38;4.10;;;23.60;99.90;;;;;;5038462;28;20203;-71
2023/09/27 08:30:36;;;;;;;4.32;3.97;;;23.60;99.90;;;;;;5035456;28;20214;-72
2023/09/27 08:33:04;;;;;;;4.95;3.75;;;23.70;99.90;;;;;;5024406;28;20205;-72
2023/09/27 08:35:33;;;;;;;4.63;4.20;;;23.80;99.90;;;;;;5036250;28;20581;-71
2023/09/27 08:38:00;;;;;;;5.22;3.80;;;24.00;99.90;;;;;;5039985;28;20723;-71
2023/09/27 08:40:27;;;;;;;4.28;3.85;;;24.20;99.90;;;;;;5033947;28;20235;-72
2023/09/27 08:42:58;;;;;;;8.32;4.15;;;24.40;99.90;;;;;;5019500;28;20566;-72
2023/09/27 08:45:26;;;;;;;4.22;3.83;;;24.50;99.90;;;;;;5041047;28;20223;-72
2023/09/27 08:47:56;;;;;;;4.35;3.78;;;24.60;99.90;;;;;;5033874;28;20200;-72
2023/09/27 08:50:25;;;;;;;4.20;3.80;;;24.70;99.90;;;;;;5040743;28;20292;-73
2023/09/27 08:52:54;;;;;;;5.47;3.90;;;24.80;99.90;;;;;;5036902;28;20730;-71
2023/09/27 08:55:21;;;;;;;6.35;3.92;;;25.00;99.90;;;;;;5037178;28;20215;-72
2023/09/27 08:57:49;;;;;;;7.20;3.60;;;25.10;99.90;;;;;;5036264;28;20203;-71
2023/09/27 09:00:21;;;;;;;5.30;3.60;;;25.00;99.90;;;;;;5037356;28;20193;-72
2023/09/27 09:02:56;;;;;;;4.93;3.35;;;25.10;99.90;;;;;;5036995;28;20203;-73
2023/09/27 09:05:23;;;;;;;4.10;3.70;;;25.10;99.90;;;;;;5036281;28;20617;-72
2023/09/27 09:07:51;;;;;;;5.22;3.80;;;25.20;99.90;;;;;;5032175;28;20195;-72
2023/09/27 09:10:22;;;;;;;4.22;3.83;;;25.40;99.90;;;;;;5037623;28;20196;-72
2023/09/27 09:12:50;;;;;;;5.53;4.10;;;25.20;99.90;;;;;;5034223;28;20696;-72
2023/09/27 09:15:29;;;;;;;4.97;4.22;;;25.40;99.90;;;;;;5037350;28;20213;-71
2023/09/27 09:17:57;;;;;;;8.07;4.28;;;25.10;99.90;;;;;;5034718;28;20199;-72
2023/09/27 09:20:32;;;;;;;6.40;3.92;;;25.00;99.90;;;;;;5035279;28;20672;-72
2023/09/27 09:23:03;;;;;;;8.02;3.88;;;25.00;99.90;;;;;;5037076;28;20702;-72
2023/09/27 09:25:32;;;;;;;4.97;3.97;;;24.90;99.90;;;;;;5022328;28;20235;-72
2023/09/27 09:28:04;;;;;;;4.65;3.55;;;25.00;99.90;;;;;;5032224;28;20713;-72
2023/09/27 09:30:35;;;;;;;4.15;3.70;;;25.00;99.90;;;;;;5021526;28;20865;-72
2023/09/27 09:33:03;;;;;;;5.50;3.78;;;25.20;99.90;;;;;;5034289;28;20649;-72
2023/09/27 09:35:39;;;;;;;5.88;4.63;;;25.40;99.90;;;;;;5037688;28;20233;-72
2023/09/27 09:38:06;;;;;;;4.85;3.97;;;25.50;99.90;;;;;;5034869;28;20479;-73
2023/09/27 09:40:52;;;;;;;5.22;4.15;;;25.70;99.90;;;;;;5034979;28;20199;-73
2023/09/27 09:43:29;;;;;;;5.75;3.55;;;25.90;99.90;;;;;;5031511;28;20837;-72
2023/09/27 09:45:57;;;;;;;5.35;3.80;;;26.00;99.90;;;;;;5020032;28;20229;-72
2023/09/27 09:48:24;;;;;;;7.45;3.80;;;25.70;99.90;;;;;;5019626;28;20648;-72
2023/09/27 09:50:52;;;;;;;5.63;4.18;;;25.70;99.90;;;;;;5032505;28;20208;-72
2023/09/27 09:53:20;;;;;;;5.60;4.03;;;25.50;99.90;;;;;;5035223;28;20222;-73
2023/09/27 09:55:52;;;;;;;5.13;3.85;;;25.40;99.90;;;;;;5031462;28;20227;-71
2023/09/27 09:58:28;;;;;;;5.15;3.90;;;25.40;99.90;;;;;;5037467;28;20198;-72
2023/09/27 10:00:57;;;;;;;4.32;3.50;;;25.20;99.90;;;;;;5036073;28;20222;-72
2023/09/27 10:03:30;;;;;;;6.40;4.10;;;25.40;99.90;;;;;;5034971;28;20207;-72
2023/09/27 10:06:01;;;;;;;7.22;3.83;;;25.40;99.90;;;;;;5030956;28;20247;-72
2023/09/27 10:08:33;;;;;;;5.75;3.72;;;25.50;99.90;;;;;;5035310;28;20216;-72
2023/09/27 10:11:03;;;;;;;4.20;3.80;;;25.50;99.90;;;;;;5018494;28;20284;-72
2023/09/27 10:13:32;;;;;;;3.90;3.50;;;25.70;99.90;;;;;;5034123;28;20207;-72
2023/09/27 10:15:59;;;;;;;4.43;3.83;;;25.80;99.90;;;;;;5033181;28;20675;-72
2023/09/27 10:18:33;;;;;;;6.28;3.47;;;25.90;99.90;;;;;;5019171;28;20720;-72
2023/09/27 10:21:08;;;;;;;5.07;3.30;;;25.90;99.90;;;;;;5030547;28;20295;-72
2023/09/27 10:23:53;;;;;;;7.28;3.58;;;26.00;99.90;;;;;;5032248;28;20597;-72
2023/09/27 10:26:31;;;;;;;4.35;3.95;;;26.00;99.90;;;;;;5031192;28;20227;-72
2023/09/27 10:29:18;;;;;;;5.35;3.72;;;26.00;99.90;;;;;;5015411;28;20226;-72
2023/09/27 10:32:21;;;;;;;3.88;3.47;;;26.20;99.90;;;;;;5032783;28;20230;-72
2023/09/27 10:34:52;;;;;;;4.07;3.72;;;26.30;99.90;;;;;;5036375;28;20276;-72
2023/09/27 10:37:58;;;;;;;4.70;3.78;;;26.40;99.90;;;;;;5018517;28;20693;-72
2023/09/27 10:40:25;;;;;;;7.72;3.50;;;26.40;99.90;;;;;;5019116;28;20211;-72
2023/09/27 10:42:55;;;;;;;6.28;3.60;;;26.60;99.90;;;;;;5032176;28;20268;-72
2023/09/27 10:45:22;;;;;;;4.55;3.90;;;26.60;99.90;;;;;;5019458;28;20510;-72
2023/09/27 10:47:50;;;;;;;7.38;3.67;;;26.40;99.90;;;;;;5016662;28;20202;-72
2023/09/27 10:50:28;;;;;;;3.90;3.60;;;26.40;99.90;;;;;;5036422;28;20201;-72
2023/09/27 10:52:55;;;;;;;4.95;3.70;;;26.50;99.90;;;;;;5013399;28;20241;-73
2023/09/27 10:55:25;;;;;;;4.05;3.65;;;26.70;99.90;;;;;;5001508;28;20231;-72
2023/09/27 10:57:55;;;;;;;5.97;3.55;;;26.90;99.90;;;;;;5032882;28;20198;-72
2023/09/27 11:00:22;;;;;;;4.38;3.20;;;27.00;99.90;;;;;;5034015;28;20352;-72
2023/09/27 11:02:50;;;;;;;6.65;3.65;;;26.90;99.90;;;;;;5032163;28;21164;-72
2023/09/27 11:05:25;;;;;;;6.63;3.97;;;26.60;99.90;;;;;;5015485;28;20688;-71
2023/09/27 11:07:52;;;;;;;4.45;3.33;;;26.10;99.90;;;;;;5038539;28;20568;-72
2023/09/27 11:10:31;;;;;;;5.00;3.67;;;26.00;99.90;;;;;;5030595;28;20230;-72
2023/09/27 11:13:13;;;;;;;5.25;3.78;;;25.90;99.90;;;;;;5037777;28;20207;-73
2023/09/27 11:15:41;;;;;;;5.50;3.63;;;26.20;99.90;;;;;;5031585;28;20230;-72
2023/09/27 11:18:09;;;;;;;5.18;3.78;;;26.60;99.90;;;;;;5038231;28;20199;-72
2023/09/27 11:20:37;;;;;;;6.90;3.50;;;26.70;99.90;;;;;;5037224;28;20615;-72
2023/09/27 11:23:05;;;;;;;4.22;3.50;;;26.90;99.90;;;;;;5038726;28;20196;-72
2023/09/27 11:25:36;;;;;;;3.50;3.20;;;26.90;99.90;;;;;;5039155;28;20254;-72
2023/09/27 11:28:03;;;;;;;3.70;3.35;;;26.70;99.90;;;;;;5039708;28;20211;-72
2023/09/27 11:30:33;;;;;;;4.00;3.60;;;26.50;99.90;;;;;;5038503;28;20240;-72
2023/09/27 11:33:03;;;;;;;3.65;3.35;;;26.70;99.90;;;;;;5038784;28;20238;-72
2023/09/27 11:35:30;;;;;;;4.43;3.33;;;27.00;99.90;;;;;;5038951;28;20234;-72
2023/09/27 11:38:12;;;;;;;4.40;3.83;;;27.20;99.90;;;;;;5018642;28;20199;-72
2023/09/27 11:40:41;;;;;;;5.32;4.20;;;27.10;99.90;;;;;;5042382;28;20204;-72
2023/09/27 11:43:08;;;;;;;6.63;3.30;;;26.90;99.90;;;;;;5038464;28;20657;-72
2023/09/27 11:45:47;;;;;;;3.90;3.50;;;26.80;99.90;;;;;;5015518;28;21038;-72
2023/09/27 11:48:15;;;;;;;3.55;3.22;;;26.70;99.90;;;;;;5035769;28;20208;-73
2023/09/27 11:50:43;;;;;;;6.07;3.78;;;26.80;99.90;;;;;;5036060;28;20828;-72
2023/09/27 11:53:10;;;;;;;3.60;3.30;;;27.10;99.90;;;;;;5039973;28;20343;-72
2023/09/27 11:55:37;;;;;;;4.00;3.58;;;27.20;99.90;;;;;;5039054;28;20276;-73
2023/09/27 11:58:04;;;;;;;4.13;3.05;;;27.20;99.90;;;;;;5041280;28;20238;-73
2023/09/27 12:00:32;;;;;;;7.28;3.15;;;27.40;99.90;;;;;;5034139;28;20199;-72
2023/09/27 12:03:00;;;;;;;4.57;3.30;;;27.40;99.90;;;;;;5035353;28;20735;-72
2023/09/27 12:05:27;;;;;;;5.15;3.80;;;27.40;99.90;;;;;;5038808;28;20253;-73
2023/09/27 12:07:54;;;;;;;4.93;3.22;;;27.40;99.90;;;;;;5033943;28;20203;-72
2023/09/27 12:10:22;;;;;;;4.32;3.40;;;27.60;99.90;;;;;;5037950;28;20262;-72
2023/09/27 12:12:49;;;;;;;4.13;3.10;;;27.80;99.90;;;;;;5032635;28;20255;-72
2023/09/27 12:15:16;;;;;;;6.15;3.50;;;27.60;99.90;;;;;;5031032;28;20493;-72
2023/09/27 12:17:43;;;;;;;4.43;3.42;;;27.50;99.90;;;;;;5034503;28;20211;-72
2023/09/27 12:20:13;;;;;;;5.38;3.33;;;27.30;99.90;;;;;;5018025;28;20755;-72
2023/09/27 12:22:40;;;;;;;4.50;3.17;;;27.20;99.90;;;;;;5002491;28;20207;-72
2023/09/27 12:25:08;;;;;;;5.35;3.20;;;27.10;99.90;;;;;;5036358;28;20204;-72
2023/09/27 12:27:35;;;;;;;3.63;3.05;;;27.20;99.90;;;;;;5036225;28;20612;-72
2023/09/27 12:30:03;;;;;;;3.67;3.30;;;27.20;99.90;;;;;;5034789;28;20199;-73
2023/09/27 12:32:30;;;;;;;5.10;3.53;;;27.30;99.90;;;;;;5014062;28;20249;-72
2023/09/27 12:34:57;;;;;;;3.92;3.00;;;27.20;99.90;;;;;;5035338;28;20448;-72
2023/09/27 12:37:25;;;;;;;4.97;3.35;;;27.10;99.90;;;;;;5019517;28;20289;-72
2023/09/27 12:39:53;;;;;;;4.50;3.63;;;27.20;99.90;;;;;;5036583;28;20495;-72
2023/09/27 12:42:20;;;;;;;5.97;3.55;;;27.10;99.90;;;;;;5032337;28;20203;-72
2023/09/27 12:44:48;;;;;;;4.38;3.42;;;27.00;99.90;;;;;;5036960;28;20253;-73
2023/09/27 12:47:15;;;;;;;6.15;3.78;;;26.70;99.90;;;;;;5017756;28;20227;-73
2023/09/27 12:49:42;;;;;;;4.63;3.10;;;26.60;99.90;;;;;;5036986;28;20637;-72
2023/09/27 12:52:09;;;;;;;5.35;4.05;;;26.40;99.90;;;;;;5016784;28;20294;-73
2023/09/27 12:54:37;;;;;;;4.43;3.47;;;26.30;99.90;;;;;;5035052;28;20747;-72